»·PEaware :: N345SP KSNA-KBFL

N345SP :: KSNA-KBFL

FLIGHT INFORMATION

Flight Status: Arrived
Operator: Privately registered:
United States
More flights under this callsign
Pilot: Ryan P. (16540)
Aircraft: GATES LEARJET LEARJET 45
(LJ45)
More flights by this aircraft type
Origin: KSNA John Wayne-Orange Co
United States
Destination: KBFL Meadows
United States
More flights between these airports :: More routes between these airports
Route: CHANL3 GMN FASTO2
File this flight plan on PilotEdge
Remarks: limited gps nav database (fsx stock gps) but can fly this routing rnav even though filing / A. autopilot sometimes jams.
Altitude:
(Current/Filed)
12,000ft
Speed:
(Current/Filed)
351kts
Departed: 25-Sep-17 11:41 AM
Arrived: 25-Sep-17 12:18 PM
Distance/Time
Traveled:
120nm/0:37
Distance/Time
To Go:
Arrived

Flight Plot

Page will automatically refresh every two minutes.

Flight plan parsing failed; only flown route is shown


Map Options




Map Legend


Flown Route
Filed Route
Departure Airport
Arrival Airport
Navaid (VOR, NDB)
Fix

Horizontal Profiles

Position Reports

Time Latitude Longitude Heading Altitude Ground
Speed
25-Sep-17 11:34 35.426695 -119.043369 262 511ft 0kts
25-Sep-17 11:35 35.426694 -119.043375 262 511ft 0kts
25-Sep-17 11:36 35.426694 -119.043375 262 511ft 0kts
25-Sep-17 11:37 33.678813 -117.869341 148 60ft 0kts
25-Sep-17 11:38 33.678808 -117.869337 148 60ft 0kts
25-Sep-17 11:39 33.678803 -117.869333 148 60ft 0kts
25-Sep-17 11:40 33.678798 -117.869330 148 60ft 0kts
25-Sep-17 11:41 33.678793 -117.869326 148 60ft 0kts
25-Sep-17 11:42 33.679394 -117.868286 25 60ft 9kts
25-Sep-17 11:43 33.681757 -117.866908 26 60ft 10kts
25-Sep-17 11:44 33.680909 -117.865533 208 60ft 4kts
25-Sep-17 11:45 33.657786 -117.880140 207 582ft 213kts
25-Sep-17 11:46 33.598819 -117.907749 204 3139ft 219kts
25-Sep-17 11:47 33.544200 -117.957867 214 5753ft 262kts
25-Sep-17 11:48 33.487007 -118.010775 216 8263ft 256kts
25-Sep-17 11:49 33.423285 -118.055279 214 10326ft 290kts
25-Sep-17 11:50 33.344350 -118.106855 216 11958ft 355kts
25-Sep-17 11:51 33.312957 -118.211338 279 12007ft 357kts
25-Sep-17 11:52 33.341163 -118.325280 291 12000ft 359kts
25-Sep-17 11:53 33.409095 -118.403427 345 12010ft 372kts
25-Sep-17 11:54 33.512849 -118.412928 353 11999ft 375kts
25-Sep-17 11:55 33.617025 -118.416736 353 11999ft 374kts
25-Sep-17 11:56 33.721182 -118.421302 353 12000ft 374kts
25-Sep-17 11:57 33.821657 -118.426275 352 12000ft 374kts
25-Sep-17 11:58 33.924395 -118.439642 339 12005ft 368kts
25-Sep-17 11:59 34.020114 -118.482350 335 12000ft 366kts
25-Sep-17 12:00 34.113848 -118.527331 335 12000ft 366kts
25-Sep-17 12:01 34.209376 -118.573298 335 12000ft 366kts
25-Sep-17 12:02 34.303950 -118.618838 335 12000ft 366kts
25-Sep-17 12:03 34.399007 -118.664688 335 12000ft 366kts
25-Sep-17 12:04 34.460572 -118.694438 335 12000ft 366kts
25-Sep-17 12:05 34.544279 -118.734962 335 12000ft 366kts
25-Sep-17 12:06 34.637613 -118.780254 335 12000ft 366kts
25-Sep-17 12:07 34.733398 -118.826803 335 12002ft 366kts
25-Sep-17 12:08 34.832871 -118.854781 352 12001ft 374kts
25-Sep-17 12:09 34.937263 -118.856772 355 11999ft 375kts
25-Sep-17 12:10 35.041708 -118.857523 355 12000ft 375kts
25-Sep-17 12:11 35.143270 -118.858853 354 11013ft 333kts
25-Sep-17 12:12 35.227432 -118.860359 350 9572ft 276kts
25-Sep-17 12:13 35.292468 -118.834354 69 8317ft 286kts
25-Sep-17 12:14 35.258053 -118.773049 182 6958ft 238kts
25-Sep-17 12:15 35.198379 -118.801419 237 5550ft 253kts
25-Sep-17 12:16 35.229839 -118.868449 340 4215ft 256kts
25-Sep-17 12:17 35.294295 -118.898134 343 3071ft 231kts
25-Sep-17 12:18 35.341067 -118.944583 317 2952ft 181kts
25-Sep-17 12:19 35.372293 -118.982279 322 2071ft 144kts
25-Sep-17 12:20 35.399946 -119.015289 321 1400ft 136kts
25-Sep-17 12:21 35.427212 -119.047676 315 672ft 135kts
25-Sep-17 12:22 35.441105 -119.063357 16 511ft 6kts
25-Sep-17 12:23 35.440234 -119.061389 136 511ft 14kts
25-Sep-17 12:24 35.436010 -119.056393 135 511ft 23kts
25-Sep-17 12:25 35.432005 -119.051520 135 511ft 18kts
25-Sep-17 12:26 35.428908 -119.047013 50 511ft 14kts
25-Sep-17 12:27 35.429861 -119.047019 281 511ft 0kts
25-Sep-17 12:28 35.429861 -119.047019 281 511ft 0kts
25-Sep-17 12:29 35.429861 -119.047019 281 511ft 0kts
25-Sep-17 12:30 35.429861 -119.047019 281 511ft 0kts

Navigation Log

Ident Type
Flight plan parsing failed, navigation log unavailable